Tenjinmaru No11 — JD3353 — position and weather

sailwx.info

Track history (hours):
 
Tides and Currents Weather Stations Pressure Air Temp Water Temp Dewpoint Dewpoint Depression Visibility Wind Speed Wind Dir Waves Ship Positions

Tenjinmaru No11

Last reported at 2014-Oct-30 09:33 UTC. Time now 2014-Oct-31 10:47 UTC.
Position N 34°37' E 134°57'.

Length 75 m; draft 4.2 m.

Type: Cargo ship. MMSI: 431003485.

Date/timePositionNaut miles runAvg speedWind from/ knotsBaromVisibWave heightAir tempDewpointWater temp
2014-Oct-30 09:33N 34°37' E 134°57'1010.2
2014-Oct-30 08:33N 34°36' E 135°09'1211.9
2014-Oct-30 07:33N 34°38' E 135°23'4 3.3
2014-Oct-30 06:21N 34°39' E 135°28'0 0.0
2014-Oct-30 05:32N 34°39' E 135°28'0 0.0
2014-Oct-30 04:33N 34°39' E 135°28'0 0.0
2014-Oct-30 03:33N 34°39' E 135°28'0 0.0
2014-Oct-30 02:33N 34°39' E 135°28'0 0.0
2014-Oct-30 01:32N 34°39' E 135°28'0 0.0
2014-Oct-30 00:31N 34°39' E 135°28'0 0.0
2014-Oct-29 23:30N 34°39' E 135°28'4 4.6
2014-Oct-29 22:33N 34°38' E 135°23'1 0.6
2014-Oct-29 21:33N 34°37' E 135°22'0 0.0
2014-Oct-29 20:33N 34°37' E 135°22'0 0.0
2014-Oct-29 19:33N 34°37' E 135°22'0 0.0
2014-Oct-29 18:33N 34°37' E 135°22'0 0.0
2014-Oct-29 17:33N 34°37' E 135°22'0 0.0
2014-Oct-29 16:33N 34°37' E 135°22'0 0.0
2014-Oct-29 15:33N 34°37' E 135°22'0 0.0
2014-Oct-29 14:33N 34°37' E 135°22'0 0.0
2014-Oct-29 13:33N 34°37' E 135°22'0 0.0
2014-Oct-29 12:33N 34°37' E 135°22'0 0.0
2014-Oct-29 11:33N 34°37' E 135°22'0 0.0
2014-Oct-29 10:33N 34°37' E 135°22'0 0.0
2014-Oct-29 09:33N 34°37' E 135°22'5 4.7
2014-Oct-29 08:33N 34°36' E 135°17'1212.0
2014-Oct-29 07:33N 34°36' E 135°02'1312.3
2014-Oct-29 06:28N 34°40' E 134°46'  
2014-Oct-21 06:33N 35°16' E 139°46'9 9.4
2014-Oct-21 05:32N 35°25' E 139°45'7 0.7
2014-Oct-20 20:10N 35°21' E 139°51'0 0.0
2014-Oct-20 18:16N 35°21' E 139°51'1 1.8
2014-Oct-20 17:34N 35°22' E 139°50'0 0.0
2014-Oct-20 16:34N 35°22' E 139°50'0 0.0
2014-Oct-20 15:34N 35°22' E 139°50'0 0.0
2014-Oct-20 14:34N 35°22' E 139°50'0 0.0
2014-Oct-20 13:33N 35°22' E 139°50'0 0.0
2014-Oct-20 12:34N 35°22' E 139°50'0 0.0
2014-Oct-20 11:34N 35°22' E 139°50'0 0.0
2014-Oct-20 10:34N 35°22' E 139°50'  
Track history (hours):
 
Tides and Currents Weather Stations Pressure Air Temp Water Temp Dewpoint Dewpoint Depression Visibility Wind Speed Wind Dir Waves Ship Positions

Tenjinmaru No11

Last reported at 2014-Oct-30 09:33 UTC. Time now 2014-Oct-31 10:47 UTC.
Position N 34°37' E 134°57'.

Length 75 m; draft 4.2 m.

Type: Cargo ship. MMSI: 431003485.

Date/timePositionNaut miles runAvg speedWind from/ knotsBaromVisibWave heightAir tempDewpointWater temp
2014-Oct-30 09:33N 34°37' E 134°57'1010.2
2014-Oct-30 08:33N 34°36' E 135°09'1211.9
2014-Oct-30 07:33N 34°38' E 135°23'4 3.3
2014-Oct-30 06:21N 34°39' E 135°28'0 0.0
2014-Oct-30 05:32N 34°39' E 135°28'0 0.0
2014-Oct-30 04:33N 34°39' E 135°28'0 0.0
2014-Oct-30 03:33N 34°39' E 135°28'0 0.0
2014-Oct-30 02:33N 34°39' E 135°28'0 0.0
2014-Oct-30 01:32N 34°39' E 135°28'0 0.0
2014-Oct-30 00:31N 34°39' E 135°28'0 0.0
2014-Oct-29 23:30N 34°39' E 135°28'4 4.6
2014-Oct-29 22:33N 34°38' E 135°23'1 0.6
2014-Oct-29 21:33N 34°37' E 135°22'0 0.0
2014-Oct-29 20:33N 34°37' E 135°22'0 0.0
2014-Oct-29 19:33N 34°37' E 135°22'0 0.0
2014-Oct-29 18:33N 34°37' E 135°22'0 0.0
2014-Oct-29 17:33N 34°37' E 135°22'0 0.0
2014-Oct-29 16:33N 34°37' E 135°22'0 0.0
2014-Oct-29 15:33N 34°37' E 135°22'0 0.0
2014-Oct-29 14:33N 34°37' E 135°22'0 0.0
2014-Oct-29 13:33N 34°37' E 135°22'0 0.0
2014-Oct-29 12:33N 34°37' E 135°22'0 0.0
2014-Oct-29 11:33N 34°37' E 135°22'0 0.0
2014-Oct-29 10:33N 34°37' E 135°22'0 0.0
2014-Oct-29 09:33N 34°37' E 135°22'5 4.7
2014-Oct-29 08:33N 34°36' E 135°17'1212.0
2014-Oct-29 07:33N 34°36' E 135°02'1312.3
2014-Oct-29 06:28N 34°40' E 134°46'  
2014-Oct-21 06:33N 35°16' E 139°46'9 9.4
2014-Oct-21 05:32N 35°25' E 139°45'7 0.7
2014-Oct-20 20:10N 35°21' E 139°51'0 0.0
2014-Oct-20 18:16N 35°21' E 139°51'1 1.8
2014-Oct-20 17:34N 35°22' E 139°50'0 0.0
2014-Oct-20 16:34N 35°22' E 139°50'0 0.0
2014-Oct-20 15:34N 35°22' E 139°50'0 0.0
2014-Oct-20 14:34N 35°22' E 139°50'0 0.0
2014-Oct-20 13:33N 35°22' E 139°50'0 0.0
2014-Oct-20 12:34N 35°22' E 139°50'0 0.0
2014-Oct-20 11:34N 35°22' E 139°50'0 0.0
2014-Oct-20 10:34N 35°22' E 139°50'  

Dump ship's entire track history